Valle Toledo, Valles Caldera, New Mexico Weather observations

Data are for 10 minute period ending at time listed.
 Day   Time   Solar   Ave.   Ave.  Ave.  Vector  Max.   Baro.   Total    
  of    of     Rad.   Air    Rel.  Wind   Wind   Wind  Press.  Precip.   
Year   Day            Temp.  Hum.  Speed  Dir.   Gust                    
2017   (MST)  Kw/m2    F      %     mph   deg.    mph    mb.     in.     
-------------------------------------------------------------------------
 326    5:30   0.00   29.0    70    1.9    75     3.6   737.2    0.00 
 326    5:40   0.00   29.0    71    1.9    46     4.2   737.2    0.00 
 326    5:50   0.00   30.1    68    2.6    78     4.8   737.2    0.00 
 326    6:00   0.00   29.0    69    2.5    41     4.8   737.3    0.00 
 326    6:10   0.00   28.9    71    3.0    24     5.4   737.4    0.00 
 326    6:20   0.00   30.6    65    2.7    50     5.4   737.5    0.00 
 326    6:30   0.00   31.0    64    2.2    83     3.6   737.5    0.00 
 326    6:40   0.00   31.2    63    3.1    57     5.4   737.7    0.00 
 326    6:50   0.00   31.5    62    2.8    63     3.6   737.6    0.00 
 326    7:00   0.00   31.8    60    3.2    62     4.2   737.6    0.00 
 326    7:10   0.01   32.5    59    3.2    62     4.8   737.7    0.00 
 326    7:20   0.03   33.3    57    2.9    83     4.8   737.8    0.00 
 326    7:30   0.06   34.6    55    3.0    83     4.8   737.8    0.00 
 326    7:40   0.08   36.0    53    2.7    77     4.2   737.7    0.00 
 326    7:50   0.07   36.2    53    3.2    65     4.2   737.7    0.00 
 326    8:00   0.09   36.1    53    3.0    70     4.2   737.6    0.00 
 326    8:10   0.09   38.2    50    3.3    93     4.8   737.6    0.00 
 326    8:20   0.09   41.0    47    2.1   165     4.2   737.6    0.00 
 326    8:30   0.09   41.0    48    0.8   155     2.4   737.5    0.00 
 326    8:40   0.10   41.2    45    1.4   124     3.0   737.5    0.00 
 326    8:50   0.14   42.7    41    2.3   141     4.8   737.5    0.00 
 326    9:00   0.20   43.2    47    3.5   167     5.4   737.7    0.00 
 326    9:10   0.21   43.3    44    3.4   156     4.8   737.7    0.00 
 326    9:20   0.37   45.9    35    2.8   177     4.8   737.6    0.00 
 326    9:30   0.38   47.4    34    2.1   246     4.8   737.7    0.00 
 326    9:40   0.42   49.5    31    2.9   240     4.8   737.7    0.00 
 326    9:50   0.41   49.3    31    3.1   218     6.6   737.8    0.00 
 326   10:00   0.46   49.6    33    3.8   216     6.6   738.1    0.00 
 326   10:10   0.48   50.8    29    2.9   203     5.4   738.1    0.00 
 326   10:20   0.52   53.8    25    2.5   186     4.8   738.1    0.00 
 326   10:30   0.51   55.7    22    3.4   283     7.8   738.1    0.00 
 326   10:40   0.53   55.8    20    5.2   290    11.3   738.1    0.00 
 326   10:50   0.56   57.2    17    7.7   306    14.9   738.2    0.00 
 326   11:00   0.51   57.4    17    9.2   315    16.1   738.2    0.00 
 326   11:10   0.56   56.9    18    8.0   303    14.9   738.2    0.00 
 326   11:20   0.56   57.1    18    6.7   291     9.6   738.1    0.00 
 326   11:30   0.59   57.6    18    7.1   295    10.8   738.0    0.00 
 326   11:40   0.61   58.4    18    6.5   299    12.5   737.7    0.00 
 326   11:50   0.63   59.8    17    6.0   315    10.8   737.6    0.00 
 326   12:00   0.63   61.0    16    7.5   303    13.1   737.5    0.00 
 326   12:10   0.62   59.5    17    6.1   295    11.9   737.4    0.00 
 326   12:20   0.64   61.3    15    6.9   349    12.5   737.4    0.00 
 326   12:30   0.57   61.6    15    6.0   318    11.9   737.3    0.00 
 326   12:40   0.58   60.2    16    8.3   299    13.7   737.2    0.00 
 326   12:50   0.61   60.4    15    9.6   316    16.7   737.2    0.00 
 326   13:00   0.59   61.1    15    7.4   321    16.1   737.2    0.00 
 326   13:10   0.59   59.9    16    6.9   282    13.1   737.1    0.00 
 326   13:20   0.57   60.3    17    5.1   310    13.7   737.1    0.00 
 326   13:30   0.55   62.0    16    4.9   329     9.6   737.0    0.00 
 326   13:40   0.54   61.8    16    5.9   280    12.5   737.0    0.00 
 326   13:50   0.50   61.9    16    6.6   316    15.5   737.0    0.00 
 326   14:00   0.44   59.7    17    5.8   275    12.5   736.9    0.00 
 326   14:10   0.46   61.8    16    6.3   303    11.9   736.9    0.00 
 326   14:20   0.46   60.1    18    5.6   282    10.8   736.9    0.00 
 326   14:30   0.44   60.6    17    5.8   296    12.5   737.0    0.00 
 326   14:40   0.36   61.1    17    5.4   307    11.9   737.2    0.00 
 326   14:50   0.35   60.7    18    6.7   305    11.3   737.2    0.00 
 326   15:00   0.36   59.2    19    6.2   279    10.8   737.2    0.01 
 326   15:10   0.32   59.4    19    6.0   283    13.7   737.2    0.00 
 326   15:20   0.29   59.5    20    6.7   317    14.3   737.2    0.00 
 326   15:30   0.27   60.2    20    7.0   312    14.3   737.2    0.00 
 326   15:40   0.23   60.5    20    6.7   306    13.1   737.3    0.00 
 326   15:50   0.21   59.4    20    7.7   311    11.9   737.4    0.00 
 326   16:00   0.17   59.3    21    6.4   313    11.9   737.4    0.00 
 326   16:10   0.14   58.4    22    6.7   308    14.3   737.5    0.00 
 326   16:20   0.10   56.2    24    7.6   301    13.1   737.4    0.00 
 326   16:30   0.05   54.5    25    6.2   310    13.1   737.4    0.00 
 326   16:40   0.03   53.7    26    6.1   322    10.8   737.3    0.00 
 326   16:50   0.02   53.4    26    5.4   330     9.0   737.1    0.00 
 326   17:00   0.01   50.9    28    6.3   339    10.8   737.2    0.00 
 326   17:10   0.00   49.5    30    5.5   333    11.3   737.2    0.00 
 326   17:20   0.00   48.4    32    4.2   342     8.4   737.1    0.00 
 326   17:30   0.00   47.6    32    4.5   321     9.6   737.2    0.00 
 326   17:40   0.00   47.2    33    4.6   315     7.8   737.3    0.00 
 326   17:50   0.00   46.9    33    4.7   306     8.4   737.4    0.00 
 326   18:00   0.00   45.1    35    3.7   316     6.0   737.3    0.00 
 326   18:10   0.00   44.3    36    3.3   349     7.2   737.4    0.00 
 326   18:20   0.00   44.2    36    2.8   354     5.4   737.5    0.00 
 326   18:30   0.00   43.6    37    2.1   314     3.0   737.5    0.00 
 326   18:40   0.00   42.3    39    2.8    27     4.2   737.4    0.00 
 326   18:50   0.00   40.7    42    3.1    46     5.4   737.5    0.00 
 326   19:00   0.00   41.6    41    2.3   130     4.2   737.7    0.00 
 326   19:10   0.00   41.6    41    2.4    86     4.8   737.7    0.00 
 326   19:20   0.00   41.2    41    2.8    86     5.4   737.8    0.00 
 326   19:30   0.00   40.3    43    3.1    21     4.8   737.9    0.00 
 326   19:40   0.00   38.9    45    3.3    50     4.2   737.9    0.00 
 326   19:50   0.00   38.3    47    3.5    37     5.4   738.0    0.00 
 326   20:00   0.00   37.7    48    3.5    34     5.4   738.1    0.00 
 326   20:10   0.00   37.3    49    4.1    34     5.4   738.0    0.00 
 326   20:20   0.00   36.9    49    3.7    26     5.4   738.0    0.00 
 326   20:30   0.00   36.6    50    4.6    38     6.0   738.1    0.00 
 326   20:40   0.00   36.6    50    4.7    34     6.0   738.2    0.00 
 326   20:50   0.00   36.1    51    3.8    21     4.8   738.3    0.00 
 326   21:00   0.00   36.3    51    3.5    59     6.0   738.3    0.00 
 326   21:10   0.00   36.4    51    2.6    44     4.2   738.3    0.00 
 326   21:20   0.00   35.9    52    3.4    32     4.8   738.2    0.00 
 326   21:30   0.00   35.8    53    4.3    36     5.4   738.2    0.00 
 326   21:40   0.00   35.7    54    4.0    42     5.4   738.1    0.00 
 326   21:50   0.00   35.6    54    3.1    50     5.4   738.0    0.00 
 326   22:00   0.00   35.4    54    2.6    44     4.8   738.1    0.00 
 326   22:10   0.00   35.7    54    2.9    38     4.2   738.1    0.00 
 326   22:20   0.00   36.0    54    3.2    50     5.4   738.0    0.00 
 326   22:30   0.00   35.6    56    2.6    53     4.8   738.0    0.00 
 326   22:40   0.00   35.6    56    2.6    38     4.2   737.9    0.00 
 326   22:50   0.00   35.7    56    2.3    43     4.2   737.9    0.00 
 326   23:00   0.00   36.3    54    1.7    94     4.2   737.9    0.00 
 326   23:10   0.00   35.2    56    2.7    56     4.8   738.0    0.00 
 326   23:20   0.00   34.8    59    3.3    37     4.8   737.9    0.00 
 326   23:30   0.00   35.0    59    2.5    44     4.2   737.9    0.00 
 326   23:40   0.00   34.9    59    2.4    43     4.2   737.8    0.00 
 326   23:50   0.00   35.0    59    2.5    41     4.8   737.8    0.00 
 327    0:00   0.00   34.7    59    3.7    32     4.8   737.8    0.00 
 327    0:10   0.00   34.4    61    3.4    39     4.8   737.9    0.00 
 327    0:20   0.00   34.7    62    4.1    36     5.4   737.8    0.00 
 327    0:30   0.00   34.9    61    3.0    43     4.8   737.7    0.00 
 327    0:40   0.00   34.4    63    3.2    30     4.8   737.6    0.00 
 327    0:50   0.00   34.7    63    4.1    38     5.4   737.6    0.00 
 327    1:00   0.00   34.2    64    2.3    57     4.2   737.5    0.00 
 327    1:10   0.00   34.6    64    1.6    66     3.6   737.5    0.00 
 327    1:20   0.00   34.3    64    1.5    56     3.6   737.5    0.00 
 327    1:30   0.00   33.7    66    2.4    33     4.2   737.5    0.00 
 327    1:40   0.00   34.0    66    3.7    34     4.8   737.5    0.00 
 327    1:50   0.00   34.2    65    2.6    40     4.2   737.4    0.00 
 327    2:00   0.00   34.3    65    2.4    18     4.2   737.5    0.00 
 327    2:10   0.00   34.7    64    4.4    39     5.4   737.5    0.00 
 327    2:20   0.00   35.2    62    4.1    40     4.8   737.4    0.00 
 327    2:30   0.00   35.1    62    3.7    38     4.8   737.4    0.00 
 327    2:40   0.00   35.3    62    3.9    38     4.8   737.3    0.00 
 327    2:50   0.00   35.6    62    3.3    36     4.8   737.3    0.00 
 327    3:00   0.00   36.0    61    3.0    30     4.8   737.2    0.00 
 327    3:10   0.00   36.6    60    2.4    42     3.6   737.1    0.00 
 327    3:20   0.00   36.8    59    2.9    42     4.8   737.1    0.00 
 327    3:30   0.00   37.1    58    3.5    35     4.8   737.1    0.00 
 327    3:40   0.00   37.7    56    3.8    22     5.4   737.0    0.00 
 327    3:50   0.00   38.0    55    3.2    18     4.8   736.9    0.00 
 327    4:00   0.00   38.2    55    3.3    20     4.8   736.9    0.00 
 327    4:10   0.00   38.2    54    3.0    18     4.2   736.8    0.00 
 327    4:20   0.00   38.0    55    2.5    13     4.2   736.8    0.00 
 327    4:30   0.00   37.8    55    2.6    19     4.8   736.8    0.00 
 327    4:40   0.00   37.6    56    3.8     1     6.0   736.9    0.00 
 327    4:50   0.00   38.6    53    3.8   357     5.4   736.9    0.00 
 327    5:00   0.00   39.5    51    3.6   326     4.8   736.9    0.00 
 327    5:10   0.00   39.9    50    2.9   327     4.2   736.9    0.00 
 327    5:20   0.00   39.1    51    2.7    26     4.8   737.1    0.00 

Return to Valle Toledo, Valles Caldera graphs page.


Western Regional Climate Center,wrcc@dri.edu